sensor_id;sensor_type;location;lat;lon;timestamp;P1;durP1;ratioP1;P2;durP2;ratioP2
57055;SDS011;42945;51.718;5.324;2022-12-08T00:01:46;31.35;;;14.52;;
57055;SDS011;42945;51.718;5.324;2022-12-08T00:04:11;27.40;;;14.20;;
57055;SDS011;42945;51.718;5.324;2022-12-08T00:06:37;29.17;;;13.88;;
57055;SDS011;42945;51.718;5.324;2022-12-08T00:12:01;25.52;;;13.75;;
57055;SDS011;42945;51.718;5.324;2022-12-08T00:14:33;29.55;;;15.63;;
57055;SDS011;42945;51.718;5.324;2022-12-08T00:17:01;27.42;;;14.15;;
57055;SDS011;42945;51.718;5.324;2022-12-08T00:19:28;28.67;;;14.25;;
57055;SDS011;42945;51.718;5.324;2022-12-08T00:21:54;26.10;;;13.55;;
57055;SDS011;42945;51.718;5.324;2022-12-08T00:24:20;27.40;;;14.10;;
57055;SDS011;42945;51.718;5.324;2022-12-08T00:26:47;28.08;;;14.63;;
57055;SDS011;42945;51.718;5.324;2022-12-08T00:29:25;28.83;;;13.32;;
57055;SDS011;42945;51.718;5.324;2022-12-08T00:31:51;28.67;;;14.07;;
57055;SDS011;42945;51.718;5.324;2022-12-08T00:34:16;26.83;;;13.82;;
57055;SDS011;42945;51.718;5.324;2022-12-08T00:36:42;25.92;;;13.45;;
57055;SDS011;42945;51.718;5.324;2022-12-08T00:39:08;23.45;;;12.90;;
57055;SDS011;42945;51.718;5.324;2022-12-08T00:41:34;24.13;;;12.93;;
57055;SDS011;42945;51.718;5.324;2022-12-08T00:44:18;22.38;;;12.27;;
57055;SDS011;42945;51.718;5.324;2022-12-08T00:46:44;30.98;;;11.68;;
57055;SDS011;42945;51.718;5.324;2022-12-08T00:49:10;26.60;;;11.93;;
57055;SDS011;42945;51.718;5.324;2022-12-08T00:51:36;27.83;;;11.48;;
57055;SDS011;42945;51.718;5.324;2022-12-08T00:54:02;23.77;;;11.65;;
57055;SDS011;42945;51.718;5.324;2022-12-08T00:56:29;22.40;;;11.65;;
57055;SDS011;42945;51.718;5.324;2022-12-08T00:58:55;22.65;;;10.77;;
57055;SDS011;42945;51.718;5.324;2022-12-08T01:01:21;21.83;;;10.93;;
57055;SDS011;42945;51.718;5.324;2022-12-08T01:03:46;27.23;;;10.85;;
57055;SDS011;42945;51.718;5.324;2022-12-08T01:06:12;23.10;;;11.32;;
57055;SDS011;42945;51.718;5.324;2022-12-08T01:08:37;25.30;;;11.52;;
57055;SDS011;42945;51.718;5.324;2022-12-08T01:11:08;20.58;;;10.55;;
57055;SDS011;42945;51.718;5.324;2022-12-08T01:13:36;25.58;;;13.23;;
57055;SDS011;42945;51.718;5.324;2022-12-08T01:16:01;23.55;;;11.88;;
57055;SDS011;42945;51.718;5.324;2022-12-08T01:18:27;24.42;;;10.80;;
57055;SDS011;42945;51.718;5.324;2022-12-08T01:20:53;20.92;;;10.82;;
57055;SDS011;42945;51.718;5.324;2022-12-08T01:23:18;17.50;;;10.13;;
57055;SDS011;42945;51.718;5.324;2022-12-08T01:25:44;22.25;;;10.63;;
57055;SDS011;42945;51.718;5.324;2022-12-08T01:28:09;19.65;;;10.10;;
57055;SDS011;42945;51.718;5.324;2022-12-08T01:30:37;20.85;;;10.25;;
57055;SDS011;42945;51.718;5.324;2022-12-08T01:33:03;19.27;;;10.90;;
57055;SDS011;42945;51.718;5.324;2022-12-08T01:35:29;25.25;;;11.18;;
57055;SDS011;42945;51.718;5.324;2022-12-08T01:37:54;33.30;;;11.80;;
57055;SDS011;42945;51.718;5.324;2022-12-08T01:40:19;20.17;;;10.07;;
57055;SDS011;42945;51.718;5.324;2022-12-08T01:42:45;24.85;;;11.10;;
57055;SDS011;42945;51.718;5.324;2022-12-08T01:45:28;19.27;;;10.02;;
57055;SDS011;42945;51.718;5.324;2022-12-08T01:48:05;19.77;;;10.18;;
57055;SDS011;42945;51.718;5.324;2022-12-08T01:50:34;22.23;;;9.90;;
57055;SDS011;42945;51.718;5.324;2022-12-08T01:53:00;18.77;;;9.43;;
57055;SDS011;42945;51.718;5.324;2022-12-08T01:55:34;19.10;;;8.68;;
57055;SDS011;42945;51.718;5.324;2022-12-08T01:58:10;22.70;;;8.88;;
57055;SDS011;42945;51.718;5.324;2022-12-08T02:00:43;17.42;;;8.18;;
57055;SDS011;42945;51.718;5.324;2022-12-08T02:03:11;18.00;;;8.30;;
57055;SDS011;42945;51.718;5.324;2022-12-08T02:05:40;17.23;;;8.20;;
57055;SDS011;42945;51.718;5.324;2022-12-08T02:08:07;14.75;;;8.15;;
57055;SDS011;42945;51.718;5.324;2022-12-08T02:10:36;13.02;;;7.60;;
57055;SDS011;42945;51.718;5.324;2022-12-08T02:13:03;16.73;;;7.90;;
57055;SDS011;42945;51.718;5.324;2022-12-08T02:18:45;16.85;;;8.18;;
57055;SDS011;42945;51.718;5.324;2022-12-08T02:22:10;14.55;;;7.00;;
57055;SDS011;42945;51.718;5.324;2022-12-08T02:38:05;11.23;;;5.70;;
57055;SDS011;42945;51.718;5.324;2022-12-08T02:40:45;10.80;;;6.13;;
57055;SDS011;42945;51.718;5.324;2022-12-08T02:43:28;9.98;;;5.47;;
57055;SDS011;42945;51.718;5.324;2022-12-08T02:46:04;12.18;;;4.88;;
57055;SDS011;42945;51.718;5.324;2022-12-08T02:48:34;11.27;;;5.55;;
57055;SDS011;42945;51.718;5.324;2022-12-08T02:50:59;9.73;;;4.72;;
57055;SDS011;42945;51.718;5.324;2022-12-08T02:53:26;8.45;;;4.40;;
57055;SDS011;42945;51.718;5.324;2022-12-08T03:06:40;5.47;;;2.30;;
57055;SDS011;42945;51.718;5.324;2022-12-08T03:11:39;5.50;;;1.98;;
57055;SDS011;42945;51.718;5.324;2022-12-08T03:14:09;5.13;;;2.05;;
57055;SDS011;42945;51.718;5.324;2022-12-08T03:16:40;5.43;;;2.28;;
57055;SDS011;42945;51.718;5.324;2022-12-08T03:19:23;4.07;;;2.00;;
57055;SDS011;42945;51.718;5.324;2022-12-08T03:21:53;5.57;;;2.42;;
57055;SDS011;42945;51.718;5.324;2022-12-08T03:24:26;5.35;;;2.28;;
57055;SDS011;42945;51.718;5.324;2022-12-08T03:27:06;4.80;;;2.22;;
57055;SDS011;42945;51.718;5.324;2022-12-08T03:29:34;7.30;;;2.33;;
57055;SDS011;42945;51.718;5.324;2022-12-08T03:32:06;8.57;;;2.42;;
57055;SDS011;42945;51.718;5.324;2022-12-08T03:34:36;6.07;;;1.92;;
57055;SDS011;42945;51.718;5.324;2022-12-08T03:37:05;5.30;;;2.05;;
57055;SDS011;42945;51.718;5.324;2022-12-08T03:39:30;7.03;;;1.77;;
57055;SDS011;42945;51.718;5.324;2022-12-08T03:41:56;3.47;;;1.70;;
57055;SDS011;42945;51.718;5.324;2022-12-08T03:44:21;2.75;;;1.80;;
57055;SDS011;42945;51.718;5.324;2022-12-08T03:46:48;6.78;;;1.90;;
57055;SDS011;42945;51.718;5.324;2022-12-08T03:52:04;4.40;;;1.20;;
57055;SDS011;42945;51.718;5.324;2022-12-08T03:54:30;3.17;;;1.33;;
57055;SDS011;42945;51.718;5.324;2022-12-08T03:56:55;4.60;;;1.50;;
57055;SDS011;42945;51.718;5.324;2022-12-08T03:59:20;2.60;;;1.20;;
57055;SDS011;42945;51.718;5.324;2022-12-08T04:01:46;2.45;;;1.45;;
57055;SDS011;42945;51.718;5.324;2022-12-08T04:04:11;7.32;;;1.45;;
57055;SDS011;42945;51.718;5.324;2022-12-08T04:06:36;8.38;;;1.80;;
57055;SDS011;42945;51.718;5.324;2022-12-08T04:09:02;6.40;;;1.98;;
57055;SDS011;42945;51.718;5.324;2022-12-08T04:11:27;4.45;;;1.83;;
57055;SDS011;42945;51.718;5.324;2022-12-08T04:13:53;3.83;;;2.08;;
57055;SDS011;42945;51.718;5.324;2022-12-08T04:16:19;6.50;;;2.63;;
57055;SDS011;42945;51.718;5.324;2022-12-08T04:18:47;4.20;;;2.30;;
57055;SDS011;42945;51.718;5.324;2022-12-08T04:21:12;10.13;;;2.75;;
57055;SDS011;42945;51.718;5.324;2022-12-08T04:23:38;5.40;;;2.45;;
57055;SDS011;42945;51.718;5.324;2022-12-08T04:26:03;5.13;;;2.90;;
57055;SDS011;42945;51.718;5.324;2022-12-08T04:28:29;6.63;;;2.92;;
57055;SDS011;42945;51.718;5.324;2022-12-08T04:30:55;9.02;;;2.85;;
57055;SDS011;42945;51.718;5.324;2022-12-08T04:33:21;5.18;;;2.95;;
57055;SDS011;42945;51.718;5.324;2022-12-08T04:35:46;7.32;;;2.67;;
57055;SDS011;42945;51.718;5.324;2022-12-08T04:38:12;5.47;;;2.28;;
57055;SDS011;42945;51.718;5.324;2022-12-08T04:40:37;4.78;;;2.50;;
57055;SDS011;42945;51.718;5.324;2022-12-08T04:43:03;6.05;;;2.15;;
57055;SDS011;42945;51.718;5.324;2022-12-08T04:45:29;5.35;;;2.45;;
57055;SDS011;42945;51.718;5.324;2022-12-08T04:47:54;6.68;;;2.70;;
57055;SDS011;42945;51.718;5.324;2022-12-08T04:50:20;6.78;;;2.85;;
57055;SDS011;42945;51.718;5.324;2022-12-08T04:52:45;8.68;;;2.45;;
57055;SDS011;42945;51.718;5.324;2022-12-08T04:55:13;6.22;;;2.65;;
57055;SDS011;42945;51.718;5.324;2022-12-08T04:57:39;7.68;;;2.75;;
57055;SDS011;42945;51.718;5.324;2022-12-08T05:00:04;5.25;;;2.17;;
57055;SDS011;42945;51.718;5.324;2022-12-08T05:02:30;5.45;;;2.10;;
57055;SDS011;42945;51.718;5.324;2022-12-08T05:04:56;7.43;;;2.00;;
57055;SDS011;42945;51.718;5.324;2022-12-08T05:07:22;5.57;;;1.45;;
57055;SDS011;42945;51.718;5.324;2022-12-08T05:09:47;3.72;;;1.80;;
57055;SDS011;42945;51.718;5.324;2022-12-08T05:12:12;6.85;;;2.00;;
57055;SDS011;42945;51.718;5.324;2022-12-08T05:14:38;3.20;;;1.55;;
57055;SDS011;42945;51.718;5.324;2022-12-08T05:17:03;6.07;;;2.28;;
57055;SDS011;42945;51.718;5.324;2022-12-08T05:19:28;3.15;;;2.10;;
57055;SDS011;42945;51.718;5.324;2022-12-08T05:21:54;7.18;;;2.67;;
57055;SDS011;42945;51.718;5.324;2022-12-08T05:24:19;4.80;;;2.40;;
57055;SDS011;42945;51.718;5.324;2022-12-08T05:26:44;6.18;;;2.78;;
57055;SDS011;42945;51.718;5.324;2022-12-08T05:29:10;4.95;;;2.58;;
57055;SDS011;42945;51.718;5.324;2022-12-08T05:31:35;9.40;;;3.60;;
57055;SDS011;42945;51.718;5.324;2022-12-08T05:34:01;5.47;;;3.03;;
57055;SDS011;42945;51.718;5.324;2022-12-08T05:36:26;7.82;;;3.10;;
57055;SDS011;42945;51.718;5.324;2022-12-08T05:38:54;8.18;;;3.33;;
57055;SDS011;42945;51.718;5.324;2022-12-08T05:41:21;7.03;;;3.10;;
57055;SDS011;42945;51.718;5.324;2022-12-08T05:43:46;4.78;;;2.67;;
57055;SDS011;42945;51.718;5.324;2022-12-08T05:46:12;4.18;;;2.40;;
57055;SDS011;42945;51.718;5.324;2022-12-08T05:48:38;6.07;;;3.00;;
57055;SDS011;42945;51.718;5.324;2022-12-08T05:51:04;7.85;;;3.25;;
57055;SDS011;42945;51.718;5.324;2022-12-08T05:53:32;6.53;;;2.47;;
57055;SDS011;42945;51.718;5.324;2022-12-08T05:55:57;9.35;;;3.20;;
57055;SDS011;42945;51.718;5.324;2022-12-08T05:58:22;7.88;;;3.03;;
57055;SDS011;42945;51.718;5.324;2022-12-08T06:00:48;5.63;;;2.85;;
57055;SDS011;42945;51.718;5.324;2022-12-08T06:03:15;6.35;;;2.88;;
57055;SDS011;42945;51.718;5.324;2022-12-08T06:05:42;6.93;;;2.92;;
57055;SDS011;42945;51.718;5.324;2022-12-08T06:08:09;6.80;;;2.75;;
57055;SDS011;42945;51.718;5.324;2022-12-08T06:10:43;6.45;;;2.88;;
57055;SDS011;42945;51.718;5.324;2022-12-08T06:13:09;7.50;;;2.88;;
57055;SDS011;42945;51.718;5.324;2022-12-08T06:15:35;4.95;;;2.92;;
57055;SDS011;42945;51.718;5.324;2022-12-08T06:18:01;5.47;;;2.80;;
57055;SDS011;42945;51.718;5.324;2022-12-08T06:20:26;4.50;;;3.08;;
57055;SDS011;42945;51.718;5.324;2022-12-08T06:22:53;3.58;;;2.40;;
57055;SDS011;42945;51.718;5.324;2022-12-08T06:25:18;6.97;;;2.72;;
57055;SDS011;42945;51.718;5.324;2022-12-08T06:27:46;7.25;;;2.90;;
57055;SDS011;42945;51.718;5.324;2022-12-08T06:30:12;6.95;;;3.05;;
57055;SDS011;42945;51.718;5.324;2022-12-08T06:32:37;4.45;;;2.88;;
57055;SDS011;42945;51.718;5.324;2022-12-08T06:35:03;10.63;;;3.50;;
57055;SDS011;42945;51.718;5.324;2022-12-08T06:37:28;6.15;;;2.67;;
57055;SDS011;42945;51.718;5.324;2022-12-08T06:39:54;9.07;;;2.95;;
57055;SDS011;42945;51.718;5.324;2022-12-08T06:42:19;8.40;;;2.95;;
57055;SDS011;42945;51.718;5.324;2022-12-08T06:45:03;5.57;;;2.58;;
57055;SDS011;42945;51.718;5.324;2022-12-08T06:47:30;4.88;;;2.20;;
57055;SDS011;42945;51.718;5.324;2022-12-08T06:49:56;6.35;;;2.33;;
57055;SDS011;42945;51.718;5.324;2022-12-08T06:52:22;6.65;;;2.20;;
57055;SDS011;42945;51.718;5.324;2022-12-08T06:54:48;4.50;;;2.33;;
57055;SDS011;42945;51.718;5.324;2022-12-08T06:57:13;6.43;;;2.00;;
57055;SDS011;42945;51.718;5.324;2022-12-08T06:59:38;10.15;;;2.97;;
57055;SDS011;42945;51.718;5.324;2022-12-08T07:02:04;6.70;;;2.35;;
57055;SDS011;42945;51.718;5.324;2022-12-08T07:04:30;4.57;;;2.50;;
57055;SDS011;42945;51.718;5.324;2022-12-08T07:06:55;7.78;;;2.67;;
57055;SDS011;42945;51.718;5.324;2022-12-08T07:09:20;10.55;;;2.90;;
57055;SDS011;42945;51.718;5.324;2022-12-08T07:11:46;6.10;;;1.92;;
57055;SDS011;42945;51.718;5.324;2022-12-08T07:14:11;5.15;;;2.10;;
57055;SDS011;42945;51.718;5.324;2022-12-08T07:16:37;5.68;;;2.50;;
57055;SDS011;42945;51.718;5.324;2022-12-08T07:19:03;4.70;;;2.00;;
57055;SDS011;42945;51.718;5.324;2022-12-08T07:21:29;7.45;;;2.05;;
57055;SDS011;42945;51.718;5.324;2022-12-08T07:23:54;8.65;;;2.08;;
57055;SDS011;42945;51.718;5.324;2022-12-08T07:26:20;4.18;;;1.80;;
57055;SDS011;42945;51.718;5.324;2022-12-08T07:28:45;4.72;;;1.77;;
57055;SDS011;42945;51.718;5.324;2022-12-08T07:31:18;6.55;;;2.10;;
57055;SDS011;42945;51.718;5.324;2022-12-08T07:33:44;5.65;;;1.80;;
57055;SDS011;42945;51.718;5.324;2022-12-08T07:36:10;5.65;;;1.92;;
57055;SDS011;42945;51.718;5.324;2022-12-08T07:38:39;5.05;;;1.80;;
57055;SDS011;42945;51.718;5.324;2022-12-08T07:41:04;3.83;;;1.67;;
57055;SDS011;42945;51.718;5.324;2022-12-08T07:43:30;4.13;;;2.00;;
57055;SDS011;42945;51.718;5.324;2022-12-08T07:45:56;8.05;;;1.98;;
57055;SDS011;42945;51.718;5.324;2022-12-08T07:48:21;5.65;;;2.08;;
57055;SDS011;42945;51.718;5.324;2022-12-08T07:50:47;3.95;;;1.70;;
57055;SDS011;42945;51.718;5.324;2022-12-08T07:53:12;5.22;;;1.77;;
57055;SDS011;42945;51.718;5.324;2022-12-08T07:55:38;3.45;;;1.75;;
57055;SDS011;42945;51.718;5.324;2022-12-08T07:58:05;5.35;;;1.63;;
57055;SDS011;42945;51.718;5.324;2022-12-08T08:00:30;5.68;;;1.85;;
57055;SDS011;42945;51.718;5.324;2022-12-08T08:02:56;3.70;;;1.80;;
57055;SDS011;42945;51.718;5.324;2022-12-08T08:05:21;3.67;;;2.00;;
57055;SDS011;42945;51.718;5.324;2022-12-08T08:07:47;3.15;;;2.15;;
57055;SDS011;42945;51.718;5.324;2022-12-08T08:10:12;3.97;;;1.90;;
57055;SDS011;42945;51.718;5.324;2022-12-08T08:12:38;4.70;;;1.52;;
57055;SDS011;42945;51.718;5.324;2022-12-08T08:15:04;5.65;;;3.40;;
57055;SDS011;42945;51.718;5.324;2022-12-08T08:17:36;3.97;;;1.90;;
57055;SDS011;42945;51.718;5.324;2022-12-08T08:20:03;2.75;;;1.42;;
57055;SDS011;42945;51.718;5.324;2022-12-08T08:22:33;2.20;;;1.30;;
57055;SDS011;42945;51.718;5.324;2022-12-08T08:24:59;1.65;;;1.45;;
57055;SDS011;42945;51.718;5.324;2022-12-08T08:27:24;2.50;;;1.50;;
57055;SDS011;42945;51.718;5.324;2022-12-08T08:29:51;4.45;;;1.30;;
57055;SDS011;42945;51.718;5.324;2022-12-08T08:32:16;3.08;;;1.38;;
57055;SDS011;42945;51.718;5.324;2022-12-08T08:34:41;1.85;;;1.20;;
57055;SDS011;42945;51.718;5.324;2022-12-08T08:37:07;2.72;;;1.88;;
57055;SDS011;42945;51.718;5.324;2022-12-08T08:39:41;2.05;;;1.27;;
57055;SDS011;42945;51.718;5.324;2022-12-08T08:42:07;1.77;;;1.25;;
57055;SDS011;42945;51.718;5.324;2022-12-08T08:44:36;2.40;;;1.33;;
57055;SDS011;42945;51.718;5.324;2022-12-08T08:47:02;2.20;;;0.90;;
57055;SDS011;42945;51.718;5.324;2022-12-08T08:49:28;1.70;;;1.10;;
57055;SDS011;42945;51.718;5.324;2022-12-08T08:51:53;2.97;;;1.75;;
57055;SDS011;42945;51.718;5.324;2022-12-08T08:54:18;2.85;;;2.10;;
57055;SDS011;42945;51.718;5.324;2022-12-08T08:56:44;3.67;;;2.13;;
57055;SDS011;42945;51.718;5.324;2022-12-08T08:59:09;3.53;;;2.20;;
57055;SDS011;42945;51.718;5.324;2022-12-08T09:01:35;4.75;;;2.20;;
57055;SDS011;42945;51.718;5.324;2022-12-08T09:04:00;4.10;;;2.20;;
57055;SDS011;42945;51.718;5.324;2022-12-08T09:06:26;7.45;;;2.60;;
57055;SDS011;42945;51.718;5.324;2022-12-08T09:08:54;5.30;;;2.97;;
57055;SDS011;42945;51.718;5.324;2022-12-08T09:11:19;8.57;;;2.80;;
57055;SDS011;42945;51.718;5.324;2022-12-08T09:13:47;6.30;;;3.03;;
57055;SDS011;42945;51.718;5.324;2022-12-08T09:16:13;3.97;;;2.63;;
57055;SDS011;42945;51.718;5.324;2022-12-08T09:18:39;4.53;;;2.30;;
57055;SDS011;42945;51.718;5.324;2022-12-08T09:21:05;3.78;;;2.00;;
57055;SDS011;42945;51.718;5.324;2022-12-08T09:23:33;4.70;;;2.30;;
57055;SDS011;42945;51.718;5.324;2022-12-08T09:25:59;4.28;;;2.28;;
57055;SDS011;42945;51.718;5.324;2022-12-08T09:28:25;6.35;;;2.67;;
57055;SDS011;42945;51.718;5.324;2022-12-08T09:30:50;4.20;;;2.15;;
57055;SDS011;42945;51.718;5.324;2022-12-08T09:33:16;4.10;;;2.08;;
57055;SDS011;42945;51.718;5.324;2022-12-08T09:35:41;4.88;;;2.20;;
57055;SDS011;42945;51.718;5.324;2022-12-08T09:38:07;6.72;;;2.42;;
57055;SDS011;42945;51.718;5.324;2022-12-08T09:40:34;4.28;;;2.40;;
57055;SDS011;42945;51.718;5.324;2022-12-08T09:45:40;4.13;;;2.38;;
57055;SDS011;42945;51.718;5.324;2022-12-08T09:50:48;8.70;;;2.25;;
57055;SDS011;42945;51.718;5.324;2022-12-08T09:55:55;5.57;;;2.42;;
57055;SDS011;42945;51.718;5.324;2022-12-08T09:58:26;5.97;;;2.65;;
57055;SDS011;42945;51.718;5.324;2022-12-08T10:01:11;9.90;;;2.63;;
57055;SDS011;42945;51.718;5.324;2022-12-08T10:03:37;6.18;;;2.67;;
57055;SDS011;42945;51.718;5.324;2022-12-08T10:06:18;7.38;;;2.50;;
57055;SDS011;42945;51.718;5.324;2022-12-08T10:11:56;9.10;;;2.60;;
57055;SDS011;42945;51.718;5.324;2022-12-08T10:14:30;7.53;;;2.58;;
57055;SDS011;42945;51.718;5.324;2022-12-08T10:20:05;4.80;;;2.53;;
57055;SDS011;42945;51.718;5.324;2022-12-08T10:22:37;8.13;;;2.55;;
57055;SDS011;42945;51.718;5.324;2022-12-08T10:27:47;5.28;;;2.10;;
57055;SDS011;42945;51.718;5.324;2022-12-08T10:30:16;5.63;;;2.38;;
57055;SDS011;42945;51.718;5.324;2022-12-08T10:32:47;7.43;;;2.53;;
57055;SDS011;42945;51.718;5.324;2022-12-08T10:35:16;6.15;;;2.33;;
57055;SDS011;42945;51.718;5.324;2022-12-08T10:37:55;6.10;;;2.60;;
57055;SDS011;42945;51.718;5.324;2022-12-08T10:40:22;5.57;;;2.35;;
57055;SDS011;42945;51.718;5.324;2022-12-08T10:42:51;5.43;;;2.45;;
57055;SDS011;42945;51.718;5.324;2022-12-08T10:48:18;4.97;;;2.83;;
57055;SDS011;42945;51.718;5.324;2022-12-08T10:50:55;7.97;;;2.80;;
57055;SDS011;42945;51.718;5.324;2022-12-08T10:53:29;8.32;;;3.15;;
57055;SDS011;42945;51.718;5.324;2022-12-08T10:58:34;3.92;;;2.45;;
57055;SDS011;42945;51.718;5.324;2022-12-08T11:03:53;4.75;;;1.80;;
57055;SDS011;42945;51.718;5.324;2022-12-08T11:06:25;5.05;;;1.60;;
57055;SDS011;42945;51.718;5.324;2022-12-08T11:09:00;2.63;;;1.30;;
57055;SDS011;42945;51.718;5.324;2022-12-08T11:11:39;2.75;;;0.80;;
57055;SDS011;42945;51.718;5.324;2022-12-08T11:14:11;2.28;;;0.90;;
57055;SDS011;42945;51.718;5.324;2022-12-08T11:16:42;1.00;;;0.60;;
57055;SDS011;42945;51.718;5.324;2022-12-08T11:19:11;1.30;;;0.70;;
57055;SDS011;42945;51.718;5.324;2022-12-08T11:21:39;2.35;;;0.93;;
57055;SDS011;42945;51.718;5.324;2022-12-08T11:24:20;1.35;;;0.98;;
57055;SDS011;42945;51.718;5.324;2022-12-08T11:27:03;5.90;;;1.70;;
57055;SDS011;42945;51.718;5.324;2022-12-08T11:29:31;2.13;;;0.80;;
57055;SDS011;42945;51.718;5.324;2022-12-08T11:32:01;0.50;;;0.50;;
57055;SDS011;42945;51.718;5.324;2022-12-08T11:34:55;1.45;;;0.40;;
57055;SDS011;42945;51.718;5.324;2022-12-08T11:37:27;2.10;;;0.40;;
57055;SDS011;42945;51.718;5.324;2022-12-08T11:40:04;0.45;;;0.30;;
57055;SDS011;42945;51.718;5.324;2022-12-08T11:42:44;0.30;;;0.30;;
57055;SDS011;42945;51.718;5.324;2022-12-08T11:45:20;2.10;;;0.30;;
57055;SDS011;42945;51.718;5.324;2022-12-08T11:53:13;3.03;;;0.40;;
57055;SDS011;42945;51.718;5.324;2022-12-08T11:55:44;1.83;;;0.70;;
57055;SDS011;42945;51.718;5.324;2022-12-08T12:00:45;1.83;;;1.08;;
57055;SDS011;42945;51.718;5.324;2022-12-08T12:14:19;1.20;;;1.10;;
57055;SDS011;42945;51.718;5.324;2022-12-08T12:20:07;1.05;;;0.95;;
57055;SDS011;42945;51.718;5.324;2022-12-08T12:22:38;2.30;;;1.02;;
57055;SDS011;42945;51.718;5.324;2022-12-08T12:25:04;3.15;;;1.25;;
57055;SDS011;42945;51.718;5.324;2022-12-08T12:27:36;2.22;;;1.20;;
57055;SDS011;42945;51.718;5.324;2022-12-08T12:30:05;2.75;;;1.30;;
57055;SDS011;42945;51.718;5.324;2022-12-08T12:32:40;3.17;;;1.70;;
57055;SDS011;42945;51.718;5.324;2022-12-08T12:35:35;3.03;;;1.77;;
57055;SDS011;42945;51.718;5.324;2022-12-08T12:38:06;1.73;;;1.20;;
57055;SDS011;42945;51.718;5.324;2022-12-08T12:41:01;2.22;;;1.00;;
57055;SDS011;42945;51.718;5.324;2022-12-08T12:43:30;2.03;;;0.88;;
57055;SDS011;42945;51.718;5.324;2022-12-08T12:48:48;1.80;;;0.80;;
57055;SDS011;42945;51.718;5.324;2022-12-08T12:51:47;1.88;;;0.70;;
57055;SDS011;42945;51.718;5.324;2022-12-08T12:54:19;3.25;;;1.85;;
57055;SDS011;42945;51.718;5.324;2022-12-08T13:02:10;4.75;;;1.52;;
57055;SDS011;42945;51.718;5.324;2022-12-08T13:07:55;1.75;;;1.20;;
57055;SDS011;42945;51.718;5.324;2022-12-08T13:10:33;3.92;;;1.80;;
57055;SDS011;42945;51.718;5.324;2022-12-08T13:15:35;2.03;;;1.42;;
57055;SDS011;42945;51.718;5.324;2022-12-08T13:18:02;2.03;;;1.48;;
57055;SDS011;42945;51.718;5.324;2022-12-08T13:20:29;2.90;;;1.70;;
57055;SDS011;42945;51.718;5.324;2022-12-08T13:23:02;1.60;;;1.40;;
57055;SDS011;42945;51.718;5.324;2022-12-08T13:25:44;1.92;;;1.40;;
57055;SDS011;42945;51.718;5.324;2022-12-08T13:30:44;1.73;;;1.50;;
57055;SDS011;42945;51.718;5.324;2022-12-08T13:33:15;3.72;;;2.20;;
57055;SDS011;42945;51.718;5.324;2022-12-08T13:35:44;4.32;;;2.10;;
57055;SDS011;42945;51.718;5.324;2022-12-08T13:38:16;2.10;;;1.80;;
57055;SDS011;42945;51.718;5.324;2022-12-08T13:40:45;2.85;;;2.00;;
57055;SDS011;42945;51.718;5.324;2022-12-08T13:45:48;42.63;;;23.73;;
57055;SDS011;42945;51.718;5.324;2022-12-08T13:51:25;2.70;;;1.90;;
57055;SDS011;42945;51.718;5.324;2022-12-08T13:54:20;3.05;;;2.13;;
57055;SDS011;42945;51.718;5.324;2022-12-08T13:56:50;3.50;;;2.40;;
57055;SDS011;42945;51.718;5.324;2022-12-08T13:59:27;4.22;;;2.67;;
57055;SDS011;42945;51.718;5.324;2022-12-08T14:01:56;4.03;;;3.10;;
57055;SDS011;42945;51.718;5.324;2022-12-08T14:04:25;3.80;;;3.10;;
57055;SDS011;42945;51.718;5.324;2022-12-08T14:06:55;2.95;;;2.28;;
57055;SDS011;42945;51.718;5.324;2022-12-08T14:09:26;3.35;;;2.75;;
57055;SDS011;42945;51.718;5.324;2022-12-08T14:12:04;3.03;;;2.28;;
57055;SDS011;42945;51.718;5.324;2022-12-08T14:14:33;3.30;;;2.67;;
57055;SDS011;42945;51.718;5.324;2022-12-08T14:17:06;5.30;;;3.40;;
57055;SDS011;42945;51.718;5.324;2022-12-08T14:19:35;4.93;;;3.38;;
57055;SDS011;42945;51.718;5.324;2022-12-08T14:22:02;7.07;;;4.03;;
57055;SDS011;42945;51.718;5.324;2022-12-08T14:24:38;7.78;;;4.30;;
57055;SDS011;42945;51.718;5.324;2022-12-08T14:27:04;8.13;;;5.28;;
57055;SDS011;42945;51.718;5.324;2022-12-08T14:29:52;9.82;;;6.03;;
57055;SDS011;42945;51.718;5.324;2022-12-08T14:32:31;11.68;;;6.53;;
57055;SDS011;42945;51.718;5.324;2022-12-08T14:37:34;14.52;;;7.95;;
57055;SDS011;42945;51.718;5.324;2022-12-08T14:40:04;13.85;;;7.75;;
57055;SDS011;42945;51.718;5.324;2022-12-08T14:43:13;15.48;;;8.57;;
57055;SDS011;42945;51.718;5.324;2022-12-08T14:51:05;15.48;;;9.18;;
57055;SDS011;42945;51.718;5.324;2022-12-08T15:01:44;19.80;;;10.90;;
57055;SDS011;42945;51.718;5.324;2022-12-08T15:10:08;18.95;;;11.32;;
57055;SDS011;42945;51.718;5.324;2022-12-08T15:12:40;19.02;;;11.30;;
57055;SDS011;42945;51.718;5.324;2022-12-08T15:17:49;15.45;;;9.63;;
57055;SDS011;42945;51.718;5.324;2022-12-08T15:20:26;22.90;;;11.02;;
57055;SDS011;42945;51.718;5.324;2022-12-08T15:22:56;16.13;;;9.77;;
57055;SDS011;42945;51.718;5.324;2022-12-08T15:25:22;18.10;;;10.80;;
57055;SDS011;42945;51.718;5.324;2022-12-08T15:27:49;18.73;;;10.43;;
57055;SDS011;42945;51.718;5.324;2022-12-08T15:30:17;16.58;;;9.52;;
57055;SDS011;42945;51.718;5.324;2022-12-08T15:32:43;14.85;;;9.15;;
57055;SDS011;42945;51.718;5.324;2022-12-08T15:35:13;16.88;;;9.23;;
57055;SDS011;42945;51.718;5.324;2022-12-08T15:37:40;16.73;;;9.63;;
57055;SDS011;42945;51.718;5.324;2022-12-08T15:42:44;16.35;;;8.90;;
57055;SDS011;42945;51.718;5.324;2022-12-08T15:45:13;18.55;;;9.32;;
57055;SDS011;42945;51.718;5.324;2022-12-08T15:47:40;19.95;;;10.90;;
57055;SDS011;42945;51.718;5.324;2022-12-08T15:50:17;20.52;;;9.82;;
57055;SDS011;42945;51.718;5.324;2022-12-08T15:52:44;12.43;;;7.35;;
57055;SDS011;42945;51.718;5.324;2022-12-08T15:55:11;13.25;;;7.03;;
57055;SDS011;42945;51.718;5.324;2022-12-08T15:57:41;14.13;;;7.40;;
57055;SDS011;42945;51.718;5.324;2022-12-08T16:02:49;14.52;;;6.53;;
57055;SDS011;42945;51.718;5.324;2022-12-08T16:05:15;13.55;;;6.35;;
57055;SDS011;42945;51.718;5.324;2022-12-08T16:07:41;13.10;;;6.40;;
57055;SDS011;42945;51.718;5.324;2022-12-08T16:10:09;14.32;;;6.90;;
57055;SDS011;42945;51.718;5.324;2022-12-08T16:12:43;14.30;;;7.20;;
57055;SDS011;42945;51.718;5.324;2022-12-08T16:15:27;11.23;;;6.40;;
57055;SDS011;42945;51.718;5.324;2022-12-08T16:17:54;10.65;;;6.03;;
57055;SDS011;42945;51.718;5.324;2022-12-08T16:20:22;14.25;;;6.00;;
57055;SDS011;42945;51.718;5.324;2022-12-08T16:22:48;9.63;;;5.35;;
57055;SDS011;42945;51.718;5.324;2022-12-08T16:25:15;8.57;;;5.03;;
57055;SDS011;42945;51.718;5.324;2022-12-08T16:27:40;7.93;;;4.70;;
57055;SDS011;42945;51.718;5.324;2022-12-08T16:30:11;16.95;;;8.57;;
57055;SDS011;42945;51.718;5.324;2022-12-08T16:32:38;9.90;;;4.35;;
57055;SDS011;42945;51.718;5.324;2022-12-08T16:35:03;9.23;;;4.82;;
57055;SDS011;42945;51.718;5.324;2022-12-08T16:37:29;7.43;;;4.07;;
57055;SDS011;42945;51.718;5.324;2022-12-08T16:39:55;8.93;;;4.85;;
57055;SDS011;42945;51.718;5.324;2022-12-08T16:42:25;7.97;;;4.68;;
57055;SDS011;42945;51.718;5.324;2022-12-08T16:47:35;6.63;;;4.38;;
57055;SDS011;42945;51.718;5.324;2022-12-08T16:50:09;12.70;;;5.28;;
57055;SDS011;42945;51.718;5.324;2022-12-08T16:52:37;7.65;;;4.95;;
57055;SDS011;42945;51.718;5.324;2022-12-08T16:55:15;29.30;;;15.40;;
57055;SDS011;42945;51.718;5.324;2022-12-08T16:57:42;16.15;;;7.93;;
57055;SDS011;42945;51.718;5.324;2022-12-08T17:00:10;11.48;;;5.28;;
57055;SDS011;42945;51.718;5.324;2022-12-08T17:02:38;10.63;;;5.40;;
57055;SDS011;42945;51.718;5.324;2022-12-08T17:05:04;11.15;;;5.40;;
57055;SDS011;42945;51.718;5.324;2022-12-08T17:07:30;10.95;;;5.57;;
57055;SDS011;42945;51.718;5.324;2022-12-08T17:09:56;10.15;;;5.15;;